createdAt,value
2019-03-03T00:00:35.088Z,7.90
2019-03-03T00:03:06.195Z,8.00
2019-03-03T00:05:36.219Z,8.00
2019-03-03T00:08:04.935Z,8.10
2019-03-03T00:10:33.893Z,8.10
2019-03-03T00:13:02.397Z,8.10
2019-03-03T00:15:33.785Z,8.10
2019-03-03T00:18:02.415Z,8.20
2019-03-03T00:20:30.815Z,8.20
2019-03-03T00:23:00.286Z,8.20
2019-03-03T00:25:28.159Z,8.30
2019-03-03T00:27:56.741Z,8.30
2019-03-03T00:30:25.000Z,8.30
2019-03-03T00:32:53.599Z,8.40
2019-03-03T00:35:21.572Z,8.40
2019-03-03T00:38:03.147Z,8.40
2019-03-03T00:40:56.412Z,8.40
2019-03-03T00:43:42.645Z,8.40
2019-03-03T00:46:21.213Z,8.40
2019-03-03T00:48:58.188Z,8.50
2019-03-03T00:51:37.029Z,8.40
2019-03-03T00:54:22.920Z,8.50
2019-03-03T00:57:02.834Z,8.50
2019-03-03T00:59:58.968Z,8.60
2019-03-03T01:02:46.748Z,8.60
2019-03-03T01:05:23.443Z,8.60
2019-03-03T01:08:14.066Z,8.60
2019-03-03T01:10:53.547Z,8.70
2019-03-03T01:13:41.552Z,8.70
2019-03-03T01:16:42.818Z,8.70
2019-03-03T01:19:33.190Z,8.70
2019-03-03T01:22:20.689Z,8.70
2019-03-03T01:24:55.374Z,8.80
2019-03-03T01:27:24.478Z,8.80
2019-03-03T01:29:52.875Z,8.70
2019-03-03T01:32:21.086Z,8.80
2019-03-03T01:34:49.701Z,8.80
2019-03-03T01:37:18.132Z,8.80
2019-03-03T01:39:46.777Z,8.80
2019-03-03T01:42:15.037Z,8.90
2019-03-03T01:44:43.691Z,8.90
2019-03-03T01:47:11.973Z,9.00
2019-03-03T01:49:40.463Z,9.00
2019-03-03T01:52:08.336Z,9.00
2019-03-03T01:54:36.872Z,9.00
2019-03-03T01:57:05.187Z,9.00
2019-03-03T01:59:34.880Z,9.10
2019-03-03T02:02:02.985Z,9.10
2019-03-03T02:04:31.392Z,9.10
2019-03-03T02:07:00.026Z,9.20
2019-03-03T02:09:28.486Z,9.20
2019-03-03T02:11:56.535Z,9.20
2019-03-03T02:14:24.667Z,9.20
2019-03-03T02:16:52.950Z,9.20
2019-03-03T02:19:21.305Z,9.20
2019-03-03T02:21:49.752Z,9.20
2019-03-03T02:24:18.168Z,9.20
2019-03-03T02:26:46.419Z,9.20
2019-03-03T02:29:14.858Z,9.20
2019-03-03T02:31:43.147Z,9.20
2019-03-03T02:34:12.050Z,9.20
2019-03-03T02:36:39.794Z,9.30
2019-03-03T02:39:18.148Z,9.30
2019-03-03T02:41:46.356Z,9.30
2019-03-03T02:44:14.861Z,9.30
2019-03-03T02:46:42.736Z,9.30
2019-03-03T02:49:10.860Z,9.30
2019-03-03T02:51:38.956Z,9.30
2019-03-03T02:54:07.027Z,9.30
2019-03-03T02:56:38.019Z,9.30
2019-03-03T02:59:06.668Z,9.30
2019-03-03T03:01:56.718Z,9.40
2019-03-03T03:04:26.035Z,9.40
2019-03-03T03:07:11.872Z,9.40
2019-03-03T03:10:02.078Z,9.40
2019-03-03T03:12:55.529Z,9.40
2019-03-03T03:15:55.592Z,9.40
2019-03-03T03:18:58.092Z,9.40
2019-03-03T03:22:03.417Z,9.40
2019-03-03T03:24:57.050Z,9.40
2019-03-03T03:27:37.517Z,9.40
2019-03-03T03:30:25.552Z,9.40
2019-03-03T03:33:01.571Z,9.40
2019-03-03T03:35:54.904Z,9.40
2019-03-03T03:38:42.153Z,9.50
2019-03-03T03:41:30.031Z,9.50
2019-03-03T03:44:17.566Z,9.50
2019-03-03T03:47:03.884Z,9.50
2019-03-03T03:49:43.550Z,9.50
2019-03-03T03:52:36.858Z,9.50
2019-03-03T03:55:23.574Z,9.50
2019-03-03T03:58:09.831Z,9.60
2019-03-03T04:00:46.223Z,9.50
2019-03-03T04:03:43.183Z,9.50
2019-03-03T04:06:33.527Z,9.50
2019-03-03T04:09:16.434Z,9.50
2019-03-03T04:12:06.588Z,9.50
2019-03-03T04:15:06.555Z,9.60
2019-03-03T04:17:59.841Z,9.60
2019-03-03T04:20:56.594Z,9.60
2019-03-03T04:23:39.858Z,9.60
2019-03-03T04:26:32.141Z,9.60
2019-03-03T04:29:20.418Z,9.60
2019-03-03T04:32:02.163Z,9.60
2019-03-03T04:34:56.194Z,9.60
2019-03-03T04:37:38.457Z,9.60
2019-03-03T04:40:29.690Z,9.60
2019-03-03T04:43:17.375Z,9.60
2019-03-03T04:46:04.937Z,9.60
2019-03-03T04:48:51.657Z,9.70
2019-03-03T04:51:42.889Z,9.70
2019-03-03T04:54:36.629Z,9.70
2019-03-03T04:57:28.206Z,9.60
2019-03-03T05:00:22.584Z,9.60
2019-03-03T05:03:10.831Z,9.60
2019-03-03T05:06:13.452Z,9.50
2019-03-03T05:08:59.512Z,9.50
2019-03-03T05:12:36.440Z,9.40
2019-03-03T05:15:53.072Z,9.40
2019-03-03T05:18:27.823Z,9.30
2019-03-03T05:20:56.240Z,9.20
2019-03-03T05:23:31.413Z,9.10
2019-03-03T05:25:59.699Z,9.10
2019-03-03T05:28:28.060Z,9.10
2019-03-03T05:30:57.367Z,9.00
2019-03-03T05:33:25.924Z,9.00
2019-03-03T05:35:55.286Z,8.90
2019-03-03T05:38:25.435Z,8.90
2019-03-03T05:40:59.221Z,8.90
2019-03-03T05:43:28.758Z,8.90
2019-03-03T05:45:57.714Z,8.90
2019-03-03T05:48:26.765Z,8.90
2019-03-03T05:51:04.348Z,8.80
2019-03-03T05:53:34.620Z,8.80
2019-03-03T05:56:05.115Z,8.80
2019-03-03T05:58:41.333Z,8.80
2019-03-03T06:01:14.995Z,8.80
2019-03-03T06:03:54.887Z,8.80
2019-03-03T06:06:25.413Z,8.80
2019-03-03T06:08:58.330Z,8.80
2019-03-03T06:11:29.250Z,8.80
2019-03-03T06:16:25.790Z,8.80
2019-03-03T06:19:10.509Z,8.80
2019-03-03T06:21:39.328Z,8.70
2019-03-03T06:24:09.324Z,8.80
2019-03-03T06:26:43.318Z,8.70
2019-03-03T06:29:15.231Z,8.70
2019-03-03T06:31:51.527Z,8.70
2019-03-03T06:34:28.441Z,8.70
2019-03-03T06:37:11.321Z,8.70
2019-03-03T06:46:00.316Z,8.70
2019-03-03T06:49:29.210Z,8.70
2019-03-03T06:52:03.413Z,8.80
2019-03-03T06:54:34.573Z,8.80
2019-03-03T06:57:02.968Z,8.80
2019-03-03T06:59:37.998Z,8.80
2019-03-03T07:02:12.284Z,8.80
2019-03-03T07:04:48.760Z,8.80
2019-03-03T07:21:43.862Z,8.90
2019-03-03T07:24:12.859Z,8.90
2019-03-03T07:26:40.777Z,8.90
2019-03-03T07:29:09.961Z,8.90
2019-03-03T07:31:38.662Z,8.90
2019-03-03T07:34:07.773Z,9.00
2019-03-03T07:36:35.925Z,9.00
2019-03-03T07:39:14.499Z,9.00
2019-03-03T07:45:16.628Z,9.00
2019-03-03T07:47:47.651Z,9.00
2019-03-03T07:50:20.728Z,9.00
2019-03-03T07:52:49.219Z,9.00
2019-03-03T07:55:17.723Z,9.00
2019-03-03T08:00:34.454Z,9.10
2019-03-03T08:03:02.432Z,9.10
2019-03-03T08:05:30.483Z,9.10
2019-03-03T08:07:58.907Z,9.10
2019-03-03T08:10:26.552Z,9.10
2019-03-03T08:12:54.666Z,9.10
2019-03-03T08:15:23.906Z,9.10
2019-03-03T08:17:52.212Z,9.10
2019-03-03T08:20:20.080Z,9.10
2019-03-03T08:22:51.175Z,9.10
2019-03-03T08:25:32.918Z,9.20
2019-03-03T08:28:45.742Z,9.20
2019-03-03T08:31:03.745Z,9.20
2019-03-03T08:33:32.540Z,9.20
2019-03-03T08:36:22.651Z,9.20
2019-03-03T08:38:50.883Z,9.20
2019-03-03T08:41:20.441Z,9.20
2019-03-03T08:44:01.336Z,9.20
2019-03-03T08:50:10.004Z,9.20
2019-03-03T08:52:45.584Z,9.20
2019-03-03T08:55:31.394Z,9.20
2019-03-03T08:58:11.121Z,9.20
2019-03-03T09:08:11.665Z,9.30
2019-03-03T09:10:50.211Z,9.30
2019-03-03T09:13:46.254Z,9.40
2019-03-03T09:16:40.620Z,9.40
2019-03-03T09:19:25.617Z,9.40
2019-03-03T09:25:36.184Z,9.40
2019-03-03T09:28:36.470Z,9.40
2019-03-03T09:31:43.852Z,9.40
2019-03-03T09:40:44.771Z,9.50
2019-03-03T09:43:26.244Z,9.50
2019-03-03T09:46:54.414Z,9.50
2019-03-03T09:50:09.879Z,9.50
2019-03-03T09:53:03.371Z,9.60
2019-03-03T09:55:54.723Z,9.60
2019-03-03T10:01:52.982Z,9.70
2019-03-03T10:04:44.226Z,9.60
2019-03-03T10:08:18.177Z,9.70
2019-03-03T10:11:08.283Z,9.70
2019-03-03T10:14:19.060Z,9.80
2019-03-03T10:17:11.790Z,9.90
2019-03-03T10:19:59.924Z,10.00
2019-03-03T10:22:50.042Z,10.10
2019-03-03T10:25:33.665Z,10.20
2019-03-03T10:28:15.114Z,10.20
2019-03-03T10:30:53.705Z,10.20
2019-03-03T10:33:49.904Z,10.20
2019-03-03T10:36:43.353Z,10.20
2019-03-03T10:39:37.504Z,10.20
2019-03-03T10:42:25.032Z,10.20
2019-03-03T10:45:14.072Z,10.20
2019-03-03T10:48:05.636Z,10.10
2019-03-03T10:50:53.028Z,10.10
2019-03-03T11:02:40.816Z,10.10
2019-03-03T11:09:21.573Z,10.10
2019-03-03T11:19:08.991Z,10.10
2019-03-03T11:43:45.393Z,10.30
2019-03-03T11:46:29.295Z,10.30
2019-03-03T11:49:10.952Z,10.40
2019-03-03T11:51:53.451Z,10.30
2019-03-03T11:54:44.199Z,10.30
2019-03-03T11:57:33.524Z,10.30
2019-03-03T12:00:20.668Z,10.40
2019-03-03T12:03:22.967Z,10.40
2019-03-03T12:06:05.355Z,10.40
2019-03-03T12:09:25.937Z,10.40
2019-03-03T12:12:17.031Z,10.40
2019-03-03T12:15:09.667Z,10.40
2019-03-03T12:18:00.525Z,10.40
2019-03-03T12:20:57.254Z,10.30
2019-03-03T12:23:53.204Z,10.30
2019-03-03T12:26:28.138Z,10.20
2019-03-03T12:29:11.631Z,10.20
2019-03-03T12:31:50.871Z,10.20
2019-03-03T12:34:29.915Z,10.20
2019-03-03T12:37:25.952Z,10.20
2019-03-03T12:40:12.350Z,10.30
2019-03-03T12:43:05.919Z,10.30
2019-03-03T12:45:52.224Z,10.30
2019-03-03T12:48:38.249Z,10.40
2019-03-03T12:51:28.738Z,10.40
2019-03-03T12:54:29.894Z,10.40
2019-03-03T12:57:07.678Z,10.50
2019-03-03T12:59:57.543Z,10.50
2019-03-03T13:02:48.185Z,10.50
2019-03-03T13:05:28.179Z,10.50
2019-03-03T13:08:18.344Z,10.50
2019-03-03T13:11:05.795Z,10.50
2019-03-03T13:13:57.173Z,10.50
2019-03-03T13:16:51.619Z,10.50
2019-03-03T13:19:43.925Z,10.40
2019-03-03T13:22:50.618Z,10.40
2019-03-03T13:25:47.121Z,10.40
2019-03-03T13:28:43.155Z,10.50
2019-03-03T13:31:48.947Z,10.50
2019-03-03T13:34:36.926Z,10.50
2019-03-03T13:37:11.392Z,10.50
2019-03-03T13:40:06.361Z,10.50
2019-03-03T13:43:00.739Z,10.40
2019-03-03T13:45:42.485Z,10.40
2019-03-03T13:48:17.608Z,10.40
2019-03-03T13:51:06.241Z,10.50
2019-03-03T13:53:48.607Z,10.50
2019-03-03T13:56:17.876Z,10.50
2019-03-03T13:58:46.705Z,10.50
2019-03-03T14:01:15.968Z,10.50
2019-03-03T14:03:45.854Z,10.60
2019-03-03T14:06:13.874Z,10.60
2019-03-03T14:08:43.978Z,10.60
2019-03-03T14:11:13.717Z,10.50
2019-03-03T14:13:41.644Z,10.50
2019-03-03T14:16:10.160Z,10.50
2019-03-03T14:18:39.672Z,10.50
2019-03-03T14:21:08.655Z,10.50
2019-03-03T14:23:39.707Z,10.50
2019-03-03T14:26:08.321Z,10.50
2019-03-03T14:28:36.541Z,10.50
2019-03-03T14:31:06.621Z,10.50
2019-03-03T14:33:36.375Z,10.50
2019-03-03T14:36:04.661Z,10.50
2019-03-03T14:38:32.893Z,10.50
2019-03-03T14:41:00.776Z,10.50
2019-03-03T14:43:28.772Z,10.50
2019-03-03T14:45:58.064Z,10.50
2019-03-03T14:48:25.773Z,10.50
2019-03-03T14:50:54.061Z,10.50
2019-03-03T14:53:43.351Z,10.50
2019-03-03T14:56:12.866Z,10.50
2019-03-03T14:58:43.986Z,10.50
2019-03-03T15:01:12.596Z,10.50
2019-03-03T15:03:41.055Z,10.50
2019-03-03T15:06:08.888Z,10.50
2019-03-03T15:08:37.280Z,10.50
2019-03-03T15:11:05.243Z,10.50
2019-03-03T15:13:33.071Z,10.50
2019-03-03T15:16:02.982Z,10.50
2019-03-03T15:18:32.656Z,10.50
2019-03-03T15:21:02.070Z,10.50
2019-03-03T15:23:29.748Z,10.50
2019-03-03T15:26:03.268Z,10.50
2019-03-03T15:28:31.416Z,10.50
2019-03-03T15:31:15.960Z,10.50
2019-03-03T15:34:11.782Z,10.50
2019-03-03T15:37:02.177Z,10.50
2019-03-03T15:39:57.239Z,10.50
2019-03-03T15:42:25.633Z,10.50
2019-03-03T15:44:53.964Z,10.50
2019-03-03T15:47:27.790Z,10.50
2019-03-03T15:49:57.546Z,10.50
2019-03-03T15:52:28.348Z,10.50
2019-03-03T15:57:45.519Z,10.50
2019-03-03T16:00:17.451Z,10.60
2019-03-03T16:02:47.808Z,10.60
2019-03-03T16:05:25.103Z,10.60
2019-03-03T16:07:59.856Z,10.60
2019-03-03T16:10:37.104Z,10.70
2019-03-03T16:13:07.196Z,10.60
2019-03-03T16:15:35.780Z,10.60
2019-03-03T16:18:05.648Z,10.70
2019-03-03T16:20:34.269Z,10.70
2019-03-03T16:23:02.237Z,10.70
2019-03-03T16:25:35.906Z,10.60
2019-03-03T16:28:04.123Z,10.60
2019-03-03T16:30:32.408Z,10.70
2019-03-03T16:33:01.044Z,10.60
2019-03-03T16:35:29.473Z,10.60
2019-03-03T16:37:57.766Z,10.60
2019-03-03T16:40:28.504Z,10.60
2019-03-03T16:42:56.736Z,10.60
2019-03-03T16:45:25.156Z,10.60
2019-03-03T16:47:53.307Z,10.60
2019-03-03T16:50:23.321Z,10.60
2019-03-03T16:52:51.351Z,10.60
2019-03-03T16:55:20.083Z,10.60
2019-03-03T16:57:51.390Z,10.60
2019-03-03T17:00:20.895Z,10.60
2019-03-03T17:02:48.937Z,10.60
2019-03-03T17:05:17.844Z,10.60
2019-03-03T17:07:46.843Z,10.60
2019-03-03T17:10:16.186Z,10.60
2019-03-03T17:12:43.820Z,10.50
2019-03-03T17:15:21.850Z,10.60
2019-03-03T17:17:49.554Z,10.50
2019-03-03T17:20:17.974Z,10.60
2019-03-03T17:22:49.953Z,10.60
2019-03-03T17:25:23.299Z,10.60
2019-03-03T17:27:53.564Z,10.60
2019-03-03T17:30:23.240Z,10.60
2019-03-03T17:32:50.987Z,10.60
2019-03-03T17:35:19.041Z,10.50
2019-03-03T17:37:47.214Z,10.50
2019-03-03T17:40:16.966Z,10.50
2019-03-03T17:42:46.994Z,10.50
2019-03-03T17:45:17.462Z,10.50
2019-03-03T17:47:47.935Z,10.50
2019-03-03T17:50:16.211Z,10.50
2019-03-03T17:52:44.969Z,10.50
2019-03-03T17:55:14.015Z,10.50
2019-03-03T17:57:42.564Z,10.50
2019-03-03T18:00:20.296Z,10.40
2019-03-03T18:02:58.711Z,10.50
2019-03-03T18:05:29.801Z,10.40
2019-03-03T18:08:02.750Z,10.40
2019-03-03T18:10:39.556Z,10.40
2019-03-03T18:13:08.082Z,10.40
2019-03-03T18:15:36.716Z,10.50
2019-03-03T18:18:08.238Z,10.40
2019-03-03T18:20:39.094Z,10.50
2019-03-03T18:23:09.791Z,10.40
2019-03-03T18:25:38.669Z,10.40
2019-03-03T18:28:10.152Z,10.40
2019-03-03T18:30:38.786Z,10.40
2019-03-03T18:33:12.842Z,10.40
2019-03-03T18:35:52.218Z,10.40
2019-03-03T18:38:20.028Z,10.40
2019-03-03T18:40:48.334Z,10.40
2019-03-03T18:43:17.553Z,10.40
2019-03-03T18:45:47.029Z,10.40
2019-03-03T18:51:27.574Z,10.40
2019-03-03T18:54:00.683Z,10.40
2019-03-03T18:56:28.647Z,10.40
2019-03-03T18:58:59.953Z,10.40
2019-03-03T19:01:32.251Z,10.40
2019-03-03T19:04:32.574Z,10.40
2019-03-03T19:07:13.171Z,10.40
2019-03-03T19:16:14.121Z,10.40
2019-03-03T19:18:42.439Z,10.40
2019-03-03T19:21:27.293Z,10.40
2019-03-03T19:23:53.953Z,10.30
2019-03-03T19:29:44.901Z,10.30
2019-03-03T19:32:13.398Z,10.30
2019-03-03T19:34:41.512Z,10.30
2019-03-03T19:37:10.455Z,10.30
2019-03-03T19:39:38.857Z,10.30
2019-03-03T19:42:07.440Z,10.30
2019-03-03T19:44:36.181Z,10.30
2019-03-03T19:47:04.184Z,10.30
2019-03-03T19:49:32.320Z,10.30
2019-03-03T19:52:00.067Z,10.30
2019-03-03T19:54:29.058Z,10.30
2019-03-03T19:56:58.544Z,10.30
2019-03-03T19:59:26.280Z,10.30
2019-03-03T20:01:54.232Z,10.30
2019-03-03T20:04:22.467Z,10.30
2019-03-03T20:06:53.936Z,10.30
2019-03-03T20:09:24.566Z,10.30
2019-03-03T20:11:52.900Z,10.30
2019-03-03T20:14:21.198Z,10.30
2019-03-03T20:17:00.119Z,10.30
2019-03-03T20:19:29.649Z,10.30
2019-03-03T20:21:58.815Z,10.30
2019-03-03T20:24:26.638Z,10.30
2019-03-03T20:26:55.646Z,10.30
2019-03-03T20:29:23.653Z,10.30
2019-03-03T20:31:51.587Z,10.30
2019-03-03T20:34:19.715Z,10.30
2019-03-03T20:36:48.143Z,10.30
2019-03-03T20:39:16.887Z,10.30
2019-03-03T20:41:44.620Z,10.30
2019-03-03T20:44:12.297Z,10.30
2019-03-03T20:46:40.836Z,10.20
2019-03-03T20:49:09.018Z,10.20
2019-03-03T20:51:37.047Z,10.20
2019-03-03T20:54:04.526Z,10.20
2019-03-03T20:56:34.292Z,10.20
2019-03-03T20:59:02.976Z,10.20
2019-03-03T21:01:31.188Z,10.20
2019-03-03T21:03:59.409Z,10.10
2019-03-03T21:06:27.817Z,10.10
2019-03-03T21:08:56.727Z,10.10
2019-03-03T21:11:24.410Z,10.10
2019-03-03T21:13:52.433Z,10.10
2019-03-03T21:16:22.914Z,10.10
2019-03-03T21:18:50.873Z,10.10
2019-03-03T21:21:18.546Z,10.10
2019-03-03T21:23:47.020Z,10.10
2019-03-03T21:26:15.311Z,10.10
2019-03-03T21:28:43.569Z,10.10
2019-03-03T21:31:11.533Z,10.10
2019-03-03T21:33:39.006Z,10.10
2019-03-03T21:36:06.802Z,10.10
2019-03-03T21:38:34.601Z,10.10
2019-03-03T21:41:02.297Z,10.10
2019-03-03T21:43:29.841Z,10.10
2019-03-03T21:45:57.751Z,10.10
2019-03-03T21:48:25.551Z,10.20
2019-03-03T21:50:54.251Z,10.10
2019-03-03T21:53:23.040Z,10.10
2019-03-03T21:55:51.515Z,10.10
2019-03-03T21:58:19.326Z,10.10
2019-03-03T22:00:47.230Z,10.10
2019-03-03T22:03:15.103Z,10.10
2019-03-03T22:05:42.971Z,10.10
2019-03-03T22:08:11.077Z,10.20
2019-03-03T22:10:38.840Z,10.10
2019-03-03T22:13:11.503Z,10.20
2019-03-03T22:15:39.368Z,10.20
2019-03-03T22:18:07.181Z,10.20
2019-03-03T22:20:36.264Z,10.20
2019-03-03T22:23:04.576Z,10.20
2019-03-03T22:25:32.265Z,10.20
2019-03-03T22:28:00.246Z,10.10
2019-03-03T22:30:28.344Z,10.10
2019-03-03T22:32:56.128Z,10.10
2019-03-03T22:35:25.484Z,10.10
2019-03-03T22:37:53.819Z,10.10
2019-03-03T22:40:21.751Z,10.00
2019-03-03T22:42:49.780Z,10.10
2019-03-03T22:45:17.596Z,10.10
2019-03-03T22:47:45.294Z,10.10
2019-03-03T22:50:13.433Z,10.10
2019-03-03T22:52:41.286Z,10.20
2019-03-03T22:55:09.521Z,10.20
2019-03-03T22:57:38.123Z,10.20
2019-03-03T23:00:21.028Z,10.20
2019-03-03T23:02:48.508Z,10.30
2019-03-03T23:05:33.817Z,10.30
2019-03-03T23:08:29.862Z,10.30
2019-03-03T23:11:36.019Z,10.40
2019-03-03T23:14:34.126Z,10.40
2019-03-03T23:17:45.415Z,10.40
2019-03-03T23:20:20.524Z,10.30
2019-03-03T23:23:30.258Z,10.30
2019-03-03T23:25:57.739Z,10.30
2019-03-03T23:28:25.110Z,10.30
2019-03-03T23:30:54.471Z,10.40
2019-03-03T23:33:22.058Z,10.40
2019-03-03T23:35:49.945Z,10.30
2019-03-03T23:38:17.611Z,10.40
2019-03-03T23:40:45.674Z,10.40
2019-03-03T23:43:13.709Z,10.40
2019-03-03T23:45:41.742Z,10.40
2019-03-03T23:48:09.171Z,10.40
2019-03-03T23:50:36.949Z,10.40
2019-03-03T23:53:04.701Z,10.40
2019-03-03T23:55:32.532Z,10.40
2019-03-03T23:58:00.749Z,10.30
